sensor_id;sensor_type;location;lat;lon;timestamp;temperature;humidity
56478;DHT22;42382;53.210;5.772;2022-10-16T00:00:38;13.00;91.10
56478;DHT22;42382;53.210;5.772;2022-10-16T00:03:04;12.90;91.00
56478;DHT22;42382;53.210;5.772;2022-10-16T00:05:31;12.90;91.00
56478;DHT22;42382;53.210;5.772;2022-10-16T00:07:56;12.90;91.00
56478;DHT22;42382;53.210;5.772;2022-10-16T00:10:22;12.90;91.00
56478;DHT22;42382;53.210;5.772;2022-10-16T00:12:48;12.90;91.10
56478;DHT22;42382;53.210;5.772;2022-10-16T00:15:14;12.90;91.00
56478;DHT22;42382;53.210;5.772;2022-10-16T00:17:39;12.90;90.80
56478;DHT22;42382;53.210;5.772;2022-10-16T00:20:05;12.90;90.90
56478;DHT22;42382;53.210;5.772;2022-10-16T00:22:31;12.90;90.90
56478;DHT22;42382;53.210;5.772;2022-10-16T00:24:56;12.90;90.90
56478;DHT22;42382;53.210;5.772;2022-10-16T00:27:22;12.90;90.90
56478;DHT22;42382;53.210;5.772;2022-10-16T00:29:51;12.90;90.90
56478;DHT22;42382;53.210;5.772;2022-10-16T00:32:18;12.90;90.90
56478;DHT22;42382;53.210;5.772;2022-10-16T00:34:43;12.90;90.90
56478;DHT22;42382;53.210;5.772;2022-10-16T00:37:09;12.90;90.90
56478;DHT22;42382;53.210;5.772;2022-10-16T00:39:35;12.90;90.70
56478;DHT22;42382;53.210;5.772;2022-10-16T00:42:00;12.90;90.80
56478;DHT22;42382;53.210;5.772;2022-10-16T00:44:49;12.90;90.70
56478;DHT22;42382;53.210;5.772;2022-10-16T00:49:59;12.90;90.60
56478;DHT22;42382;53.210;5.772;2022-10-16T00:52:27;12.90;90.50
56478;DHT22;42382;53.210;5.772;2022-10-16T00:54:53;12.90;90.50
56478;DHT22;42382;53.210;5.772;2022-10-16T00:57:19;12.90;90.50
56478;DHT22;42382;53.210;5.772;2022-10-16T00:59:45;13.00;90.40
56478;DHT22;42382;53.210;5.772;2022-10-16T01:02:14;12.90;90.40
56478;DHT22;42382;53.210;5.772;2022-10-16T01:04:43;13.00;90.50
56478;DHT22;42382;53.210;5.772;2022-10-16T01:13:03;13.10;90.20
56478;DHT22;42382;53.210;5.772;2022-10-16T01:15:38;13.20;90.20
56478;DHT22;42382;53.210;5.772;2022-10-16T01:18:21;13.20;89.90
56478;DHT22;42382;53.210;5.772;2022-10-16T01:21:22;13.20;89.90
56478;DHT22;42382;53.210;5.772;2022-10-16T01:24:11;13.30;89.70
56478;DHT22;42382;53.210;5.772;2022-10-16T01:29:30;13.40;89.20
56478;DHT22;42382;53.210;5.772;2022-10-16T01:32:01;13.40;89.20
56478;DHT22;42382;53.210;5.772;2022-10-16T01:34:34;13.40;89.20
56478;DHT22;42382;53.210;5.772;2022-10-16T01:37:09;13.40;89.30
56478;DHT22;42382;53.210;5.772;2022-10-16T01:39:39;13.40;89.10
56478;DHT22;42382;53.210;5.772;2022-10-16T01:42:09;13.40;89.10
56478;DHT22;42382;53.210;5.772;2022-10-16T01:44:37;13.40;89.20
56478;DHT22;42382;53.210;5.772;2022-10-16T01:47:05;13.30;89.10
56478;DHT22;42382;53.210;5.772;2022-10-16T01:49:33;13.30;88.90
56478;DHT22;42382;53.210;5.772;2022-10-16T01:52:04;13.40;88.90
56478;DHT22;42382;53.210;5.772;2022-10-16T01:54:32;13.40;88.90
56478;DHT22;42382;53.210;5.772;2022-10-16T01:57:00;13.40;89.10
56478;DHT22;42382;53.210;5.772;2022-10-16T01:59:28;13.30;89.20
56478;DHT22;42382;53.210;5.772;2022-10-16T02:02:00;13.30;89.40
56478;DHT22;42382;53.210;5.772;2022-10-16T02:04:32;13.30;89.50
56478;DHT22;42382;53.210;5.772;2022-10-16T02:06:58;13.30;89.60
56478;DHT22;42382;53.210;5.772;2022-10-16T02:09:24;13.20;89.80
56478;DHT22;42382;53.210;5.772;2022-10-16T02:11:53;13.20;90.00
56478;DHT22;42382;53.210;5.772;2022-10-16T02:14:20;13.20;90.10
56478;DHT22;42382;53.210;5.772;2022-10-16T02:16:47;13.20;90.10
56478;DHT22;42382;53.210;5.772;2022-10-16T02:19:15;13.10;90.20
56478;DHT22;42382;53.210;5.772;2022-10-16T02:21:56;13.10;90.30
56478;DHT22;42382;53.210;5.772;2022-10-16T02:24:46;13.00;90.50
56478;DHT22;42382;53.210;5.772;2022-10-16T02:27:22;13.00;90.80
56478;DHT22;42382;53.210;5.772;2022-10-16T02:29:54;12.90;91.00
56478;DHT22;42382;53.210;5.772;2022-10-16T02:32:28;12.90;91.00
56478;DHT22;42382;53.210;5.772;2022-10-16T02:34:56;12.90;91.10
56478;DHT22;42382;53.210;5.772;2022-10-16T02:37:23;12.90;91.10
56478;DHT22;42382;53.210;5.772;2022-10-16T02:39:50;12.90;91.20
56478;DHT22;42382;53.210;5.772;2022-10-16T02:42:17;12.80;91.20
56478;DHT22;42382;53.210;5.772;2022-10-16T02:44:43;12.90;91.30
56478;DHT22;42382;53.210;5.772;2022-10-16T02:47:08;12.90;91.40
56478;DHT22;42382;53.210;5.772;2022-10-16T02:49:34;12.90;91.30
56478;DHT22;42382;53.210;5.772;2022-10-16T02:52:00;12.80;91.20
56478;DHT22;42382;53.210;5.772;2022-10-16T02:54:25;12.80;91.20
56478;DHT22;42382;53.210;5.772;2022-10-16T02:56:51;12.70;91.00
56478;DHT22;42382;53.210;5.772;2022-10-16T02:59:17;12.70;91.20
56478;DHT22;42382;53.210;5.772;2022-10-16T03:01:43;12.70;91.10
56478;DHT22;42382;53.210;5.772;2022-10-16T03:04:08;12.70;91.10
56478;DHT22;42382;53.210;5.772;2022-10-16T03:06:34;12.60;91.00
56478;DHT22;42382;53.210;5.772;2022-10-16T03:09:00;12.60;91.10
56478;DHT22;42382;53.210;5.772;2022-10-16T03:11:25;12.50;91.10
56478;DHT22;42382;53.210;5.772;2022-10-16T03:13:52;12.50;91.00
56478;DHT22;42382;53.210;5.772;2022-10-16T03:16:17;12.50;91.10
56478;DHT22;42382;53.210;5.772;2022-10-16T03:18:43;12.40;91.00
56478;DHT22;42382;53.210;5.772;2022-10-16T03:21:08;12.40;91.00
56478;DHT22;42382;53.210;5.772;2022-10-16T03:23:34;12.40;91.10
56478;DHT22;42382;53.210;5.772;2022-10-16T03:25:59;12.40;91.10
56478;DHT22;42382;53.210;5.772;2022-10-16T03:28:25;12.40;91.10
56478;DHT22;42382;53.210;5.772;2022-10-16T03:30:51;12.40;91.00
56478;DHT22;42382;53.210;5.772;2022-10-16T03:33:16;12.40;91.10
56478;DHT22;42382;53.210;5.772;2022-10-16T03:35:42;12.40;91.20
56478;DHT22;42382;53.210;5.772;2022-10-16T03:38:07;12.40;91.10
56478;DHT22;42382;53.210;5.772;2022-10-16T03:40:33;12.50;91.10
56478;DHT22;42382;53.210;5.772;2022-10-16T03:42:59;12.50;91.20
56478;DHT22;42382;53.210;5.772;2022-10-16T03:45:24;12.50;91.20
56478;DHT22;42382;53.210;5.772;2022-10-16T03:47:50;12.50;91.20
56478;DHT22;42382;53.210;5.772;2022-10-16T03:50:16;12.50;91.30
56478;DHT22;42382;53.210;5.772;2022-10-16T03:52:41;12.50;91.20
56478;DHT22;42382;53.210;5.772;2022-10-16T03:55:07;12.50;91.20
56478;DHT22;42382;53.210;5.772;2022-10-16T03:57:33;12.60;91.30
56478;DHT22;42382;53.210;5.772;2022-10-16T03:59:58;12.60;91.30
56478;DHT22;42382;53.210;5.772;2022-10-16T04:02:24;12.70;91.30
56478;DHT22;42382;53.210;5.772;2022-10-16T04:04:49;12.70;91.40
56478;DHT22;42382;53.210;5.772;2022-10-16T04:07:15;12.70;91.40
56478;DHT22;42382;53.210;5.772;2022-10-16T04:09:41;12.80;91.50
56478;DHT22;42382;53.210;5.772;2022-10-16T04:12:07;12.80;91.60
56478;DHT22;42382;53.210;5.772;2022-10-16T04:14:32;12.80;91.80
56478;DHT22;42382;53.210;5.772;2022-10-16T04:16:58;12.80;91.80
56478;DHT22;42382;53.210;5.772;2022-10-16T04:19:24;12.70;91.90
56478;DHT22;42382;53.210;5.772;2022-10-16T04:21:49;12.80;91.90
56478;DHT22;42382;53.210;5.772;2022-10-16T04:24:15;12.80;92.00
56478;DHT22;42382;53.210;5.772;2022-10-16T04:26:40;12.70;92.20
56478;DHT22;42382;53.210;5.772;2022-10-16T04:29:06;12.70;92.20
56478;DHT22;42382;53.210;5.772;2022-10-16T04:31:32;12.80;92.40
56478;DHT22;42382;53.210;5.772;2022-10-16T04:33:58;12.80;92.20
56478;DHT22;42382;53.210;5.772;2022-10-16T04:36:24;12.80;92.30
56478;DHT22;42382;53.210;5.772;2022-10-16T04:38:49;12.80;92.30
56478;DHT22;42382;53.210;5.772;2022-10-16T04:41:15;12.70;92.40
56478;DHT22;42382;53.210;5.772;2022-10-16T04:43:40;12.70;92.40
56478;DHT22;42382;53.210;5.772;2022-10-16T04:46:06;12.70;92.30
56478;DHT22;42382;53.210;5.772;2022-10-16T04:48:32;12.70;92.40
56478;DHT22;42382;53.210;5.772;2022-10-16T04:50:58;12.70;92.40
56478;DHT22;42382;53.210;5.772;2022-10-16T04:53:23;12.60;92.50
56478;DHT22;42382;53.210;5.772;2022-10-16T04:55:49;12.60;92.40
56478;DHT22;42382;53.210;5.772;2022-10-16T04:58:16;12.60;92.50
56478;DHT22;42382;53.210;5.772;2022-10-16T05:00:41;12.70;92.40
56478;DHT22;42382;53.210;5.772;2022-10-16T05:03:07;12.60;92.50
56478;DHT22;42382;53.210;5.772;2022-10-16T05:05:35;12.60;92.30
56478;DHT22;42382;53.210;5.772;2022-10-16T05:08:01;12.60;92.40
56478;DHT22;42382;53.210;5.772;2022-10-16T05:10:27;12.60;92.40
56478;DHT22;42382;53.210;5.772;2022-10-16T05:12:52;12.60;92.40
56478;DHT22;42382;53.210;5.772;2022-10-16T05:15:18;12.50;92.30
56478;DHT22;42382;53.210;5.772;2022-10-16T05:17:44;12.60;92.30
56478;DHT22;42382;53.210;5.772;2022-10-16T05:20:10;12.50;92.20
56478;DHT22;42382;53.210;5.772;2022-10-16T05:22:36;12.60;92.30
56478;DHT22;42382;53.210;5.772;2022-10-16T05:25:01;12.50;92.20
56478;DHT22;42382;53.210;5.772;2022-10-16T05:27:27;12.60;92.30
56478;DHT22;42382;53.210;5.772;2022-10-16T05:29:52;12.60;92.40
56478;DHT22;42382;53.210;5.772;2022-10-16T05:32:19;12.50;92.40
56478;DHT22;42382;53.210;5.772;2022-10-16T05:34:45;12.60;92.30
56478;DHT22;42382;53.210;5.772;2022-10-16T05:37:11;12.50;92.40
56478;DHT22;42382;53.210;5.772;2022-10-16T05:39:37;12.50;92.30
56478;DHT22;42382;53.210;5.772;2022-10-16T05:42:04;12.60;92.30
56478;DHT22;42382;53.210;5.772;2022-10-16T05:44:30;12.50;92.20
56478;DHT22;42382;53.210;5.772;2022-10-16T05:46:55;12.50;92.30
56478;DHT22;42382;53.210;5.772;2022-10-16T05:49:22;12.40;92.30
56478;DHT22;42382;53.210;5.772;2022-10-16T05:51:47;12.50;92.50
56478;DHT22;42382;53.210;5.772;2022-10-16T05:54:13;12.50;92.50
56478;DHT22;42382;53.210;5.772;2022-10-16T05:56:39;12.50;92.50
56478;DHT22;42382;53.210;5.772;2022-10-16T05:59:04;12.50;92.50
56478;DHT22;42382;53.210;5.772;2022-10-16T06:01:30;12.40;92.60
56478;DHT22;42382;53.210;5.772;2022-10-16T06:03:56;12.40;92.60
56478;DHT22;42382;53.210;5.772;2022-10-16T06:06:25;12.50;92.60
56478;DHT22;42382;53.210;5.772;2022-10-16T06:08:52;12.40;92.60
56478;DHT22;42382;53.210;5.772;2022-10-16T06:11:20;12.40;92.60
56478;DHT22;42382;53.210;5.772;2022-10-16T06:13:50;12.40;92.60
56478;DHT22;42382;53.210;5.772;2022-10-16T06:16:15;12.40;92.70
56478;DHT22;42382;53.210;5.772;2022-10-16T06:18:41;12.40;92.50
56478;DHT22;42382;53.210;5.772;2022-10-16T06:21:12;12.40;92.50
56478;DHT22;42382;53.210;5.772;2022-10-16T06:23:37;12.40;92.50
56478;DHT22;42382;53.210;5.772;2022-10-16T06:26:08;12.40;92.60
56478;DHT22;42382;53.210;5.772;2022-10-16T06:28:34;12.40;92.70
56478;DHT22;42382;53.210;5.772;2022-10-16T06:31:00;12.40;92.70
56478;DHT22;42382;53.210;5.772;2022-10-16T06:33:26;12.40;92.70
56478;DHT22;42382;53.210;5.772;2022-10-16T06:35:52;12.50;93.00
56478;DHT22;42382;53.210;5.772;2022-10-16T06:38:17;12.60;92.90
56478;DHT22;42382;53.210;5.772;2022-10-16T06:40:43;12.60;92.80
56478;DHT22;42382;53.210;5.772;2022-10-16T06:43:09;12.60;92.90
56478;DHT22;42382;53.210;5.772;2022-10-16T06:45:34;12.70;92.60
56478;DHT22;42382;53.210;5.772;2022-10-16T06:48:00;12.70;92.60
56478;DHT22;42382;53.210;5.772;2022-10-16T06:50:25;12.70;92.40
56478;DHT22;42382;53.210;5.772;2022-10-16T06:52:51;12.60;92.30
56478;DHT22;42382;53.210;5.772;2022-10-16T06:55:17;12.70;92.30
56478;DHT22;42382;53.210;5.772;2022-10-16T06:57:43;12.70;92.30
56478;DHT22;42382;53.210;5.772;2022-10-16T07:00:09;12.80;92.10
56478;DHT22;42382;53.210;5.772;2022-10-16T07:02:35;12.70;92.20
56478;DHT22;42382;53.210;5.772;2022-10-16T07:05:00;12.80;92.20
56478;DHT22;42382;53.210;5.772;2022-10-16T07:07:26;12.80;92.20
56478;DHT22;42382;53.210;5.772;2022-10-16T07:09:52;12.80;92.10
56478;DHT22;42382;53.210;5.772;2022-10-16T07:12:18;12.80;92.10
56478;DHT22;42382;53.210;5.772;2022-10-16T07:14:43;12.70;92.00
56478;DHT22;42382;53.210;5.772;2022-10-16T07:17:09;12.70;92.00
56478;DHT22;42382;53.210;5.772;2022-10-16T07:19:34;12.80;92.10
56478;DHT22;42382;53.210;5.772;2022-10-16T07:22:00;12.70;92.10
56478;DHT22;42382;53.210;5.772;2022-10-16T07:24:26;12.80;92.00
56478;DHT22;42382;53.210;5.772;2022-10-16T07:26:52;12.70;92.20
56478;DHT22;42382;53.210;5.772;2022-10-16T07:29:19;12.80;92.20
56478;DHT22;42382;53.210;5.772;2022-10-16T07:31:46;12.80;92.10
56478;DHT22;42382;53.210;5.772;2022-10-16T07:34:13;12.80;92.30
56478;DHT22;42382;53.210;5.772;2022-10-16T07:36:39;12.80;92.20
56478;DHT22;42382;53.210;5.772;2022-10-16T07:39:05;12.90;92.10
56478;DHT22;42382;53.210;5.772;2022-10-16T07:41:31;13.00;92.10
56478;DHT22;42382;53.210;5.772;2022-10-16T07:43:58;13.10;92.10
56478;DHT22;42382;53.210;5.772;2022-10-16T07:46:26;13.20;92.10
56478;DHT22;42382;53.210;5.772;2022-10-16T07:48:52;13.20;91.80
56478;DHT22;42382;53.210;5.772;2022-10-16T07:51:20;13.20;91.90
56478;DHT22;42382;53.210;5.772;2022-10-16T07:53:46;13.20;92.00
56478;DHT22;42382;53.210;5.772;2022-10-16T07:56:12;13.30;92.00
56478;DHT22;42382;53.210;5.772;2022-10-16T07:58:38;13.30;91.90
56478;DHT22;42382;53.210;5.772;2022-10-16T08:01:06;13.30;91.90
56478;DHT22;42382;53.210;5.772;2022-10-16T08:03:32;13.30;91.80
56478;DHT22;42382;53.210;5.772;2022-10-16T08:05:59;13.40;91.60
56478;DHT22;42382;53.210;5.772;2022-10-16T08:08:25;13.40;91.50
56478;DHT22;42382;53.210;5.772;2022-10-16T08:10:50;13.40;91.60
56478;DHT22;42382;53.210;5.772;2022-10-16T08:13:16;13.40;91.50
56478;DHT22;42382;53.210;5.772;2022-10-16T08:15:43;13.40;91.60
56478;DHT22;42382;53.210;5.772;2022-10-16T08:18:10;13.40;91.80
56478;DHT22;42382;53.210;5.772;2022-10-16T08:20:35;13.50;91.80
56478;DHT22;42382;53.210;5.772;2022-10-16T08:23:01;13.50;91.70
56478;DHT22;42382;53.210;5.772;2022-10-16T08:25:28;13.60;91.60
56478;DHT22;42382;53.210;5.772;2022-10-16T08:27:53;13.60;91.30
56478;DHT22;42382;53.210;5.772;2022-10-16T08:30:20;13.60;91.40
56478;DHT22;42382;53.210;5.772;2022-10-16T08:32:46;13.60;91.30
56478;DHT22;42382;53.210;5.772;2022-10-16T08:35:13;13.60;91.40
56478;DHT22;42382;53.210;5.772;2022-10-16T08:37:40;13.60;91.30
56478;DHT22;42382;53.210;5.772;2022-10-16T08:40:07;13.60;91.20
56478;DHT22;42382;53.210;5.772;2022-10-16T08:42:53;13.60;91.20
56478;DHT22;42382;53.210;5.772;2022-10-16T08:48:33;13.90;91.20
56478;DHT22;42382;53.210;5.772;2022-10-16T08:51:02;14.00;91.70
56478;DHT22;42382;53.210;5.772;2022-10-16T08:53:40;14.80;90.80
56478;DHT22;42382;53.210;5.772;2022-10-16T08:56:08;15.50;89.40
56478;DHT22;42382;53.210;5.772;2022-10-16T08:58:34;16.00;87.90
56478;DHT22;42382;53.210;5.772;2022-10-16T09:01:02;16.60;86.90
56478;DHT22;42382;53.210;5.772;2022-10-16T09:11:52;17.00;83.20
56478;DHT22;42382;53.210;5.772;2022-10-16T09:17:30;18.30;79.50
56478;DHT22;42382;53.210;5.772;2022-10-16T09:22:43;19.30;77.30
56478;DHT22;42382;53.210;5.772;2022-10-16T09:25:15;19.30;76.00
56478;DHT22;42382;53.210;5.772;2022-10-16T09:27:42;18.90;75.70
56478;DHT22;42382;53.210;5.772;2022-10-16T09:30:20;18.60;76.00
56478;DHT22;42382;53.210;5.772;2022-10-16T09:32:48;18.50;77.20
56478;DHT22;42382;53.210;5.772;2022-10-16T09:35:21;18.80;76.80
56478;DHT22;42382;53.210;5.772;2022-10-16T09:37:50;19.30;75.30
56478;DHT22;42382;53.210;5.772;2022-10-16T09:40:33;19.70;71.60
56478;DHT22;42382;53.210;5.772;2022-10-16T09:45:28;19.90;70.60
56478;DHT22;42382;53.210;5.772;2022-10-16T09:47:53;20.30;71.40
56478;DHT22;42382;53.210;5.772;2022-10-16T09:50:27;20.60;70.30
56478;DHT22;42382;53.210;5.772;2022-10-16T09:53:13;20.80;68.40
56478;DHT22;42382;53.210;5.772;2022-10-16T09:55:54;20.60;67.00
56478;DHT22;42382;53.210;5.772;2022-10-16T09:58:23;20.10;66.70
56478;DHT22;42382;53.210;5.772;2022-10-16T10:00:52;19.90;68.40
56478;DHT22;42382;53.210;5.772;2022-10-16T10:03:39;19.40;67.50
56478;DHT22;42382;53.210;5.772;2022-10-16T10:06:27;18.70;68.60
56478;DHT22;42382;53.210;5.772;2022-10-16T10:11:53;18.90;68.00
56478;DHT22;42382;53.210;5.772;2022-10-16T10:14:40;19.50;64.40
56478;DHT22;42382;53.210;5.772;2022-10-16T10:19:53;19.70;64.30
56478;DHT22;42382;53.210;5.772;2022-10-16T10:22:41;20.10;62.80
56478;DHT22;42382;53.210;5.772;2022-10-16T10:28:06;20.30;61.10
56478;DHT22;42382;53.210;5.772;2022-10-16T10:30:40;20.30;60.70
56478;DHT22;42382;53.210;5.772;2022-10-16T10:35:53;20.60;59.90
56478;DHT22;42382;53.210;5.772;2022-10-16T10:38:26;20.30;60.40
56478;DHT22;42382;53.210;5.772;2022-10-16T10:46:50;19.90;60.50
56478;DHT22;42382;53.210;5.772;2022-10-16T10:54:54;20.50;57.70
56478;DHT22;42382;53.210;5.772;2022-10-16T10:57:30;20.80;56.60
56478;DHT22;42382;53.210;5.772;2022-10-16T11:03:09;20.60;58.10
56478;DHT22;42382;53.210;5.772;2022-10-16T11:05:50;20.80;56.00
56478;DHT22;42382;53.210;5.772;2022-10-16T11:08:26;20.90;55.90
56478;DHT22;42382;53.210;5.772;2022-10-16T11:11:08;21.20;55.10
56478;DHT22;42382;53.210;5.772;2022-10-16T11:16:20;21.60;53.60
56478;DHT22;42382;53.210;5.772;2022-10-16T11:18:58;21.70;54.50
56478;DHT22;42382;53.210;5.772;2022-10-16T11:21:26;21.70;53.30
56478;DHT22;42382;53.210;5.772;2022-10-16T11:24:01;21.90;54.10
56478;DHT22;42382;53.210;5.772;2022-10-16T11:26:35;21.60;53.20
56478;DHT22;42382;53.210;5.772;2022-10-16T11:29:05;21.10;53.00
56478;DHT22;42382;53.210;5.772;2022-10-16T11:31:41;20.60;55.00
56478;DHT22;42382;53.210;5.772;2022-10-16T11:34:36;20.80;54.90
56478;DHT22;42382;53.210;5.772;2022-10-16T11:37:14;20.60;53.70
56478;DHT22;42382;53.210;5.772;2022-10-16T11:39:43;19.60;55.80
56478;DHT22;42382;53.210;5.772;2022-10-16T11:42:32;18.70;58.80
56478;DHT22;42382;53.210;5.772;2022-10-16T11:47:41;17.60;63.30
56478;DHT22;42382;53.210;5.772;2022-10-16T11:52:48;17.20;64.80
56478;DHT22;42382;53.210;5.772;2022-10-16T11:55:20;17.10;65.00
56478;DHT22;42382;53.210;5.772;2022-10-16T11:58:05;17.00;65.20
56478;DHT22;42382;53.210;5.772;2022-10-16T12:00:40;16.90;65.20
56478;DHT22;42382;53.210;5.772;2022-10-16T12:06:06;16.90;66.80
56478;DHT22;42382;53.210;5.772;2022-10-16T12:08:37;16.90;65.90
56478;DHT22;42382;53.210;5.772;2022-10-16T12:11:20;16.90;66.30
56478;DHT22;42382;53.210;5.772;2022-10-16T12:13:47;16.80;66.00
56478;DHT22;42382;53.210;5.772;2022-10-16T12:18:43;16.70;66.80
56478;DHT22;42382;53.210;5.772;2022-10-16T12:21:10;16.70;66.40
56478;DHT22;42382;53.210;5.772;2022-10-16T12:23:59;16.60;67.00
56478;DHT22;42382;53.210;5.772;2022-10-16T12:26:28;16.60;66.40
56478;DHT22;42382;53.210;5.772;2022-10-16T12:29:12;16.60;67.40
56478;DHT22;42382;53.210;5.772;2022-10-16T12:31:46;16.60;67.20
56478;DHT22;42382;53.210;5.772;2022-10-16T12:34:57;16.70;68.10
56478;DHT22;42382;53.210;5.772;2022-10-16T12:37:24;16.70;67.80
56478;DHT22;42382;53.210;5.772;2022-10-16T12:39:51;16.70;67.30
56478;DHT22;42382;53.210;5.772;2022-10-16T12:42:22;16.70;67.60
56478;DHT22;42382;53.210;5.772;2022-10-16T12:44:48;16.70;67.60
56478;DHT22;42382;53.210;5.772;2022-10-16T12:49:57;16.70;68.40
56478;DHT22;42382;53.210;5.772;2022-10-16T12:52:37;16.70;67.50
56478;DHT22;42382;53.210;5.772;2022-10-16T12:55:05;16.60;67.90
56478;DHT22;42382;53.210;5.772;2022-10-16T13:00:50;16.60;68.10
56478;DHT22;42382;53.210;5.772;2022-10-16T13:03:48;16.60;68.40
56478;DHT22;42382;53.210;5.772;2022-10-16T13:09:24;16.30;67.90
56478;DHT22;42382;53.210;5.772;2022-10-16T13:12:20;16.30;68.30
56478;DHT22;42382;53.210;5.772;2022-10-16T13:15:04;16.30;68.80
56478;DHT22;42382;53.210;5.772;2022-10-16T13:17:50;16.30;69.40
56478;DHT22;42382;53.210;5.772;2022-10-16T13:23:22;16.30;69.50
56478;DHT22;42382;53.210;5.772;2022-10-16T13:26:21;16.30;69.30
56478;DHT22;42382;53.210;5.772;2022-10-16T13:28:49;16.30;69.80
56478;DHT22;42382;53.210;5.772;2022-10-16T13:31:20;16.30;70.70
56478;DHT22;42382;53.210;5.772;2022-10-16T13:33:50;16.30;70.80
56478;DHT22;42382;53.210;5.772;2022-10-16T13:36:26;16.30;71.00
56478;DHT22;42382;53.210;5.772;2022-10-16T13:39:20;16.30;71.10
56478;DHT22;42382;53.210;5.772;2022-10-16T13:41:57;16.20;70.80
56478;DHT22;42382;53.210;5.772;2022-10-16T13:44:23;16.10;71.30
56478;DHT22;42382;53.210;5.772;2022-10-16T13:46:59;16.20;71.40
56478;DHT22;42382;53.210;5.772;2022-10-16T13:49:24;16.10;71.00
56478;DHT22;42382;53.210;5.772;2022-10-16T13:51:55;16.10;71.00
56478;DHT22;42382;53.210;5.772;2022-10-16T13:54:21;16.10;70.40
56478;DHT22;42382;53.210;5.772;2022-10-16T13:56:46;16.00;70.60
56478;DHT22;42382;53.210;5.772;2022-10-16T13:59:35;16.00;70.70
56478;DHT22;42382;53.210;5.772;2022-10-16T14:02:15;15.90;70.50
56478;DHT22;42382;53.210;5.772;2022-10-16T14:04:44;15.90;71.30
56478;DHT22;42382;53.210;5.772;2022-10-16T14:07:31;15.90;71.60
56478;DHT22;42382;53.210;5.772;2022-10-16T14:10:02;16.00;70.30
56478;DHT22;42382;53.210;5.772;2022-10-16T14:12:28;15.90;70.70
56478;DHT22;42382;53.210;5.772;2022-10-16T14:14:55;15.90;70.20
56478;DHT22;42382;53.210;5.772;2022-10-16T14:17:25;15.90;70.20
56478;DHT22;42382;53.210;5.772;2022-10-16T14:19:54;15.90;70.30
56478;DHT22;42382;53.210;5.772;2022-10-16T14:22:33;15.90;69.90
56478;DHT22;42382;53.210;5.772;2022-10-16T14:25:00;15.90;70.00
56478;DHT22;42382;53.210;5.772;2022-10-16T14:27:34;15.80;70.40
56478;DHT22;42382;53.210;5.772;2022-10-16T14:30:17;15.80;70.40
56478;DHT22;42382;53.210;5.772;2022-10-16T14:32:54;15.80;70.60
56478;DHT22;42382;53.210;5.772;2022-10-16T14:35:29;15.80;70.80
56478;DHT22;42382;53.210;5.772;2022-10-16T14:37:56;15.80;71.40
56478;DHT22;42382;53.210;5.772;2022-10-16T14:40:25;15.70;71.40
56478;DHT22;42382;53.210;5.772;2022-10-16T14:42:51;15.60;71.40
56478;DHT22;42382;53.210;5.772;2022-10-16T14:45:26;15.60;71.80
56478;DHT22;42382;53.210;5.772;2022-10-16T14:47:55;15.50;71.80
56478;DHT22;42382;53.210;5.772;2022-10-16T14:50:22;15.50;72.20
56478;DHT22;42382;53.210;5.772;2022-10-16T14:52:48;15.50;72.50
56478;DHT22;42382;53.210;5.772;2022-10-16T14:55:13;15.40;72.60
56478;DHT22;42382;53.210;5.772;2022-10-16T14:57:39;15.40;72.90
56478;DHT22;42382;53.210;5.772;2022-10-16T15:00:23;15.40;73.10
56478;DHT22;42382;53.210;5.772;2022-10-16T15:02:49;15.40;73.10
56478;DHT22;42382;53.210;5.772;2022-10-16T15:05:22;15.40;73.50
56478;DHT22;42382;53.210;5.772;2022-10-16T15:07:50;15.40;73.50
56478;DHT22;42382;53.210;5.772;2022-10-16T15:10:17;15.40;73.70
56478;DHT22;42382;53.210;5.772;2022-10-16T15:12:43;15.30;74.00
56478;DHT22;42382;53.210;5.772;2022-10-16T15:17:50;15.30;74.30
56478;DHT22;42382;53.210;5.772;2022-10-16T15:20:22;15.20;74.60
56478;DHT22;42382;53.210;5.772;2022-10-16T15:22:48;15.20;74.80
56478;DHT22;42382;53.210;5.772;2022-10-16T15:25:34;15.20;74.90
56478;DHT22;42382;53.210;5.772;2022-10-16T15:28:01;15.30;74.80
56478;DHT22;42382;53.210;5.772;2022-10-16T15:30:28;15.20;75.00
56478;DHT22;42382;53.210;5.772;2022-10-16T15:32:54;15.20;75.10
56478;DHT22;42382;53.210;5.772;2022-10-16T15:35:19;15.10;75.30
56478;DHT22;42382;53.210;5.772;2022-10-16T15:37:46;15.20;75.50
56478;DHT22;42382;53.210;5.772;2022-10-16T15:40:13;15.10;75.50
56478;DHT22;42382;53.210;5.772;2022-10-16T15:42:39;15.10;75.70
56478;DHT22;42382;53.210;5.772;2022-10-16T15:45:06;15.10;75.70
56478;DHT22;42382;53.210;5.772;2022-10-16T15:47:33;15.10;75.80
56478;DHT22;42382;53.210;5.772;2022-10-16T15:49:59;15.10;75.90
56478;DHT22;42382;53.210;5.772;2022-10-16T15:52:25;15.10;76.00
56478;DHT22;42382;53.210;5.772;2022-10-16T15:54:50;15.00;76.10
56478;DHT22;42382;53.210;5.772;2022-10-16T15:57:16;15.00;76.20
56478;DHT22;42382;53.210;5.772;2022-10-16T15:59:41;15.00;76.20
56478;DHT22;42382;53.210;5.772;2022-10-16T16:02:08;14.90;76.30
56478;DHT22;42382;53.210;5.772;2022-10-16T16:04:34;14.90;76.40
56478;DHT22;42382;53.210;5.772;2022-10-16T16:07:00;14.90;76.50
56478;DHT22;42382;53.210;5.772;2022-10-16T16:09:28;14.80;76.60
56478;DHT22;42382;53.210;5.772;2022-10-16T16:11:54;14.80;76.70
56478;DHT22;42382;53.210;5.772;2022-10-16T16:14:19;14.80;76.80
56478;DHT22;42382;53.210;5.772;2022-10-16T16:16:45;14.70;77.00
56478;DHT22;42382;53.210;5.772;2022-10-16T16:19:10;14.70;77.10
56478;DHT22;42382;53.210;5.772;2022-10-16T16:21:36;14.70;77.30
56478;DHT22;42382;53.210;5.772;2022-10-16T16:24:02;14.60;77.40
56478;DHT22;42382;53.210;5.772;2022-10-16T16:26:34;14.60;77.60
56478;DHT22;42382;53.210;5.772;2022-10-16T16:29:03;14.60;77.80
56478;DHT22;42382;53.210;5.772;2022-10-16T16:31:30;14.50;78.00
56478;DHT22;42382;53.210;5.772;2022-10-16T16:33:57;14.50;78.10
56478;DHT22;42382;53.210;5.772;2022-10-16T16:36:23;14.40;78.30
56478;DHT22;42382;53.210;5.772;2022-10-16T16:38:50;14.40;78.40
56478;DHT22;42382;53.210;5.772;2022-10-16T16:41:18;14.40;78.50
56478;DHT22;42382;53.210;5.772;2022-10-16T16:43:44;14.30;78.70
56478;DHT22;42382;53.210;5.772;2022-10-16T16:46:10;14.30;78.80
56478;DHT22;42382;53.210;5.772;2022-10-16T16:48:37;14.30;78.90
56478;DHT22;42382;53.210;5.772;2022-10-16T16:51:07;14.30;79.10
56478;DHT22;42382;53.210;5.772;2022-10-16T16:53:36;14.20;79.20
56478;DHT22;42382;53.210;5.772;2022-10-16T16:56:03;14.10;79.30
56478;DHT22;42382;53.210;5.772;2022-10-16T16:58:30;14.10;79.40
56478;DHT22;42382;53.210;5.772;2022-10-16T17:00:56;14.10;79.60
56478;DHT22;42382;53.210;5.772;2022-10-16T17:03:21;14.00;79.70
56478;DHT22;42382;53.210;5.772;2022-10-16T17:06:01;14.00;79.90
56478;DHT22;42382;53.210;5.772;2022-10-16T17:08:27;13.90;80.00